Airfield :
LOGIN :

Register | Disclaimer

   EN    FR    IT 

 










Legend :    VFR   Marginal VFR   IFR   Intensive IFR   Very Intensive IFR
Visi :
Ceiling :
>= 8 km
>= 3000ft
5 to 8 km
1000 to 3000 ft
1500m to 5 km
500 to 1000 ft
800 to 1500m
200 to 500 ft
< 800m
< 200 ft
Symbols :   Thunderstorms  Fog  Heavy snow  Heavy precipitations  Wind > 20 kt
SIGMETs :     Misc.  Thunderstorms  Icing  Turbulence  Mountain Waves  Volcanic Ashes






- Airport Elevation : 24 ft
- IATA code : FAO


LPFR - Faro

CURRENT METAR :
  • 202000Z 24007KT 9999 FEW007 SCT018 17/16 Q1004

EXPIRED METARs :
  • 201930Z 23010KT 9999 SCT007 SCT018 17/16 Q1003
  • 201900Z 24012KT 9999 -RA SCT018 17/16 Q1002
  • 201830Z 30007KT 250V330 9999 -RA FEW020CB SCT030 16/16 Q1001
  • 201800Z 28019KT 6000 RA SCT012 FEW020CB BKN030 16/16 Q1001
  • 201730Z 22019G38KT 200V260 1500 +RA FEW008 SCT012 FEW020CB BKN030 17/17 Q1000

TAF TAF LPFR
Valid from the 20 at 18:00 until the 21 at 18:00 UTC


201700Z 2018/2118 22022KT 6000 -RA SCT012 BKN025
TEMPO 2018/2024 22025G35KT 2000 RA BR SCT004 BKN008
BECMG 2100/2102 25015KT 9999 NSW FEW008 SCT035
PROB30
TEMPO 2102/2108 5000 RADZ BR BKN008
BECMG 2105/2108 22012KT



MET'MAP, your aeronautical weather chart ! - Copyright ORBIFLY December 2007 - Disclaimer

ORBIFLY MET'MAP TEAM :

Programming & Development : Alexandra Zaïnal
Concept & original design : Baudouin d'Aumeries
Assistance for programming : Marc-Olivier Méhu
Technical & hardware support : Manuel Goepfert

Contact : metmap@orbifly.com




SOURCES & CREDITS :

   NOAA